sensor_id;sensor_type;location;lat;lon;timestamp;P1;P2;P0
80861;PMS5003;71798;54.942;73.444;2023-08-07T00:01:00;7.00;6.00;4.00
80861;PMS5003;71798;54.942;73.444;2023-08-07T00:03:26;8.00;7.00;5.00
80861;PMS5003;71798;54.942;73.444;2023-08-07T00:05:52;5.00;5.00;3.00
80861;PMS5003;71798;54.942;73.444;2023-08-07T00:08:18;7.00;7.00;4.00
80861;PMS5003;71798;54.942;73.444;2023-08-07T00:10:45;9.00;8.00;5.00
80861;PMS5003;71798;54.942;73.444;2023-08-07T00:13:11;7.00;6.00;3.75
80861;PMS5003;71798;54.942;73.444;2023-08-07T00:15:40;6.00;5.50;4.00
80861;PMS5003;71798;54.942;73.444;2023-08-07T00:18:06;6.00;6.00;4.00
80861;PMS5003;71798;54.942;73.444;2023-08-07T00:20:32;7.25;7.00;4.00
80861;PMS5003;71798;54.942;73.444;2023-08-07T00:22:58;8.00;7.00;5.00
80861;PMS5003;71798;54.942;73.444;2023-08-07T00:25:24;6.00;5.00;3.75
80861;PMS5003;71798;54.942;73.444;2023-08-07T00:27:50;8.00;7.00;5.00
80861;PMS5003;71798;54.942;73.444;2023-08-07T00:30:16;6.00;6.00;4.00
80861;PMS5003;71798;54.942;73.444;2023-08-07T00:32:43;6.00;6.00;4.00
80861;PMS5003;71798;54.942;73.444;2023-08-07T00:35:09;7.00;6.00;4.00
80861;PMS5003;71798;54.942;73.444;2023-08-07T00:37:35;7.00;6.00;4.00
80861;PMS5003;71798;54.942;73.444;2023-08-07T00:40:01;8.00;7.00;5.00
80861;PMS5003;71798;54.942;73.444;2023-08-07T00:42:28;7.00;6.00;4.00
80861;PMS5003;71798;54.942;73.444;2023-08-07T00:44:54;12.00;10.25;6.00
80861;PMS5003;71798;54.942;73.444;2023-08-07T00:47:20;6.00;6.00;4.00
80861;PMS5003;71798;54.942;73.444;2023-08-07T00:49:47;8.00;7.00;4.00
80861;PMS5003;71798;54.942;73.444;2023-08-07T00:52:13;7.00;7.00;4.00
80861;PMS5003;71798;54.942;73.444;2023-08-07T00:54:39;13.00;12.50;8.25
80861;PMS5003;71798;54.942;73.444;2023-08-07T00:57:12;9.00;8.00;5.00
80861;PMS5003;71798;54.942;73.444;2023-08-07T00:59:40;5.50;5.00;3.00
80861;PMS5003;71798;54.942;73.444;2023-08-07T01:02:07;7.00;6.00;4.00
80861;PMS5003;71798;54.942;73.444;2023-08-07T01:04:33;7.50;7.00;4.00
80861;PMS5003;71798;54.942;73.444;2023-08-07T01:06:59;7.00;6.50;4.00
80861;PMS5003;71798;54.942;73.444;2023-08-07T01:09:26;6.00;5.25;4.00
80861;PMS5003;71798;54.942;73.444;2023-08-07T01:11:57;7.00;6.00;4.00
80861;PMS5003;71798;54.942;73.444;2023-08-07T01:14:37;7.00;7.00;5.00
80861;PMS5003;71798;54.942;73.444;2023-08-07T01:17:17;6.25;6.00;4.00
80861;PMS5003;71798;54.942;73.444;2023-08-07T01:19:46;6.00;6.00;4.00
80861;PMS5003;71798;54.942;73.444;2023-08-07T01:22:14;6.00;5.00;4.00
80861;PMS5003;71798;54.942;73.444;2023-08-07T01:24:42;6.00;5.25;3.00
80861;PMS5003;71798;54.942;73.444;2023-08-07T01:30:17;7.00;7.00;5.00
80861;PMS5003;71798;54.942;73.444;2023-08-07T01:35:02;7.00;6.25;4.00
80861;PMS5003;71798;54.942;73.444;2023-08-07T01:37:30;7.50;7.00;4.00
80861;PMS5003;71798;54.942;73.444;2023-08-07T01:39:58;6.00;6.00;5.00
80861;PMS5003;71798;54.942;73.444;2023-08-07T01:42:26;6.00;5.00;3.00
80861;PMS5003;71798;54.942;73.444;2023-08-07T01:44:52;9.00;7.00;4.50
80861;PMS5003;71798;54.942;73.444;2023-08-07T01:47:19;9.00;8.00;5.00
80861;PMS5003;71798;54.942;73.444;2023-08-07T01:49:45;9.00;9.00;6.00
80861;PMS5003;71798;54.942;73.444;2023-08-07T01:52:11;8.50;8.00;4.00
80861;PMS5003;71798;54.942;73.444;2023-08-07T01:54:37;6.25;6.00;5.00
80861;PMS5003;71798;54.942;73.444;2023-08-07T01:57:04;9.00;8.00;5.00
80861;PMS5003;71798;54.942;73.444;2023-08-07T01:59:30;8.00;7.75;5.00
80861;PMS5003;71798;54.942;73.444;2023-08-07T02:01:56;10.25;9.00;5.00
80861;PMS5003;71798;54.942;73.444;2023-08-07T02:04:22;11.00;9.00;6.00
80861;PMS5003;71798;54.942;73.444;2023-08-07T02:06:48;9.00;8.00;5.00
80861;PMS5003;71798;54.942;73.444;2023-08-07T02:09:14;8.75;7.50;5.00
80861;PMS5003;71798;54.942;73.444;2023-08-07T02:11:40;9.00;8.00;6.00
80861;PMS5003;71798;54.942;73.444;2023-08-07T02:14:06;8.00;6.00;4.00
80861;PMS5003;71798;54.942;73.444;2023-08-07T02:16:32;8.00;7.00;5.00
80861;PMS5003;71798;54.942;73.444;2023-08-07T02:19:06;8.00;7.00;5.00
80861;PMS5003;71798;54.942;73.444;2023-08-07T02:21:32;9.00;8.00;5.00
80861;PMS5003;71798;54.942;73.444;2023-08-07T02:23:58;9.00;8.00;5.00
80861;PMS5003;71798;54.942;73.444;2023-08-07T02:26:24;10.00;9.00;6.00
80861;PMS5003;71798;54.942;73.444;2023-08-07T02:28:50;8.00;7.00;5.00
80861;PMS5003;71798;54.942;73.444;2023-08-07T02:31:16;10.00;9.00;6.00
80861;PMS5003;71798;54.942;73.444;2023-08-07T02:33:42;7.00;6.75;5.00
80861;PMS5003;71798;54.942;73.444;2023-08-07T02:36:09;8.00;7.50;5.00
80861;PMS5003;71798;54.942;73.444;2023-08-07T02:38:35;8.00;8.00;5.00
80861;PMS5003;71798;54.942;73.444;2023-08-07T02:41:01;10.00;8.00;5.00
80861;PMS5003;71798;54.942;73.444;2023-08-07T02:43:28;7.50;7.00;4.25
80861;PMS5003;71798;54.942;73.444;2023-08-07T02:45:54;10.00;9.00;6.00
80861;PMS5003;71798;54.942;73.444;2023-08-07T02:48:20;11.00;10.00;6.00
80861;PMS5003;71798;54.942;73.444;2023-08-07T02:50:46;10.75;10.00;6.50
80861;PMS5003;71798;54.942;73.444;2023-08-07T02:53:13;9.50;8.50;5.25
80861;PMS5003;71798;54.942;73.444;2023-08-07T02:55:39;10.00;9.00;5.00
80861;PMS5003;71798;54.942;73.444;2023-08-07T02:58:05;18.00;17.50;11.75
80861;PMS5003;71798;54.942;73.444;2023-08-07T03:05:12;12.00;11.00;8.00
80861;PMS5003;71798;54.942;73.444;2023-08-07T03:07:38;10.00;9.00;6.00
80861;PMS5003;71798;54.942;73.444;2023-08-07T03:10:04;13.50;12.00;8.25
80861;PMS5003;71798;54.942;73.444;2023-08-07T03:12:30;13.00;12.00;8.00
80861;PMS5003;71798;54.942;73.444;2023-08-07T03:14:57;11.00;9.00;6.00
80861;PMS5003;71798;54.942;73.444;2023-08-07T03:17:23;18.25;17.00;12.00
80861;PMS5003;71798;54.942;73.444;2023-08-07T03:19:49;7.25;7.00;5.00
80861;PMS5003;71798;54.942;73.444;2023-08-07T03:22:16;9.00;8.25;6.00
80861;PMS5003;71798;54.942;73.444;2023-08-07T03:24:46;10.75;10.00;6.00
80861;PMS5003;71798;54.942;73.444;2023-08-07T03:27:12;10.50;9.75;7.00
80861;PMS5003;71798;54.942;73.444;2023-08-07T03:29:38;11.50;10.75;7.00
80861;PMS5003;71798;54.942;73.444;2023-08-07T03:32:04;11.00;10.00;7.00
80861;PMS5003;71798;54.942;73.444;2023-08-07T03:34:31;49.25;42.50;31.25
80861;PMS5003;71798;54.942;73.444;2023-08-07T03:37:00;9.00;8.00;5.00
80861;PMS5003;71798;54.942;73.444;2023-08-07T03:39:26;9.00;9.00;6.00
80861;PMS5003;71798;54.942;73.444;2023-08-07T03:41:52;11.00;10.00;6.75
80861;PMS5003;71798;54.942;73.444;2023-08-07T03:44:18;11.00;10.00;7.00
80861;PMS5003;71798;54.942;73.444;2023-08-07T03:46:44;10.00;9.00;5.00
80861;PMS5003;71798;54.942;73.444;2023-08-07T03:49:11;9.75;9.00;5.00
80861;PMS5003;71798;54.942;73.444;2023-08-07T03:51:37;8.00;7.00;5.00
80861;PMS5003;71798;54.942;73.444;2023-08-07T03:54:03;8.00;7.00;5.00
80861;PMS5003;71798;54.942;73.444;2023-08-07T03:56:29;11.00;9.00;5.25
80861;PMS5003;71798;54.942;73.444;2023-08-07T03:59:02;8.00;7.00;4.00
80861;PMS5003;71798;54.942;73.444;2023-08-07T04:01:29;9.00;8.00;6.00
80861;PMS5003;71798;54.942;73.444;2023-08-07T04:03:55;9.00;9.00;5.75
80861;PMS5003;71798;54.942;73.444;2023-08-07T04:06:21;9.00;8.00;5.00
80861;PMS5003;71798;54.942;73.444;2023-08-07T04:08:47;10.00;9.00;6.00
80861;PMS5003;71798;54.942;73.444;2023-08-07T04:11:14;10.50;9.50;6.00
80861;PMS5003;71798;54.942;73.444;2023-08-07T04:13:40;9.00;8.00;5.00
80861;PMS5003;71798;54.942;73.444;2023-08-07T04:16:07;9.00;8.00;6.00
80861;PMS5003;71798;54.942;73.444;2023-08-07T04:18:33;9.00;8.00;5.00
80861;PMS5003;71798;54.942;73.444;2023-08-07T04:21:01;8.00;7.25;5.00
80861;PMS5003;71798;54.942;73.444;2023-08-07T04:23:27;11.00;9.25;6.00
80861;PMS5003;71798;54.942;73.444;2023-08-07T04:25:54;11.25;10.00;6.00
80861;PMS5003;71798;54.942;73.444;2023-08-07T04:28:20;10.00;9.00;6.00
80861;PMS5003;71798;54.942;73.444;2023-08-07T04:30:50;10.50;9.00;6.00
80861;PMS5003;71798;54.942;73.444;2023-08-07T04:33:16;12.00;10.00;6.00
80861;PMS5003;71798;54.942;73.444;2023-08-07T04:35:42;10.00;10.00;6.00
80861;PMS5003;71798;54.942;73.444;2023-08-07T04:38:09;10.00;9.00;6.00
80861;PMS5003;71798;54.942;73.444;2023-08-07T04:40:35;11.50;10.25;6.50
80861;PMS5003;71798;54.942;73.444;2023-08-07T04:43:01;12.00;10.00;6.25
80861;PMS5003;71798;54.942;73.444;2023-08-07T04:45:28;12.00;11.00;7.75
80861;PMS5003;71798;54.942;73.444;2023-08-07T04:47:54;10.00;9.00;6.00
80861;PMS5003;71798;54.942;73.444;2023-08-07T04:50:20;11.00;10.00;6.00
80861;PMS5003;71798;54.942;73.444;2023-08-07T04:52:46;9.50;9.00;6.00
80861;PMS5003;71798;54.942;73.444;2023-08-07T04:55:12;11.50;10.25;6.75
80861;PMS5003;71798;54.942;73.444;2023-08-07T04:57:38;14.00;12.00;7.00
80861;PMS5003;71798;54.942;73.444;2023-08-07T05:00:05;10.00;9.00;6.00
80861;PMS5003;71798;54.942;73.444;2023-08-07T05:02:31;11.00;10.00;6.00
80861;PMS5003;71798;54.942;73.444;2023-08-07T05:04:57;10.25;9.25;6.00
80861;PMS5003;71798;54.942;73.444;2023-08-07T05:07:23;10.00;9.00;5.75
80861;PMS5003;71798;54.942;73.444;2023-08-07T05:09:49;13.00;11.75;8.00
80861;PMS5003;71798;54.942;73.444;2023-08-07T05:12:16;10.00;9.25;6.25
80861;PMS5003;71798;54.942;73.444;2023-08-07T05:14:42;12.00;11.00;7.00
80861;PMS5003;71798;54.942;73.444;2023-08-07T05:17:08;11.50;11.00;6.50
80861;PMS5003;71798;54.942;73.444;2023-08-07T05:19:34;12.00;11.00;6.00
80861;PMS5003;71798;54.942;73.444;2023-08-07T05:22:00;11.50;11.00;8.00
80861;PMS5003;71798;54.942;73.444;2023-08-07T05:24:26;13.00;12.00;8.00
80861;PMS5003;71798;54.942;73.444;2023-08-07T05:26:52;9.75;9.00;6.00
80861;PMS5003;71798;54.942;73.444;2023-08-07T05:29:18;15.00;13.00;8.00
80861;PMS5003;71798;54.942;73.444;2023-08-07T05:31:44;13.00;12.00;8.00
80861;PMS5003;71798;54.942;73.444;2023-08-07T05:34:10;11.00;10.00;6.00
80861;PMS5003;71798;54.942;73.444;2023-08-07T05:36:36;9.00;8.75;7.00
80861;PMS5003;71798;54.942;73.444;2023-08-07T05:39:03;10.25;9.00;6.00
80861;PMS5003;71798;54.942;73.444;2023-08-07T05:41:30;11.00;9.00;6.00
80861;PMS5003;71798;54.942;73.444;2023-08-07T05:43:57;11.00;10.00;7.00
80861;PMS5003;71798;54.942;73.444;2023-08-07T05:46:23;9.00;9.00;6.00
80861;PMS5003;71798;54.942;73.444;2023-08-07T05:48:49;10.50;10.00;6.00
80861;PMS5003;71798;54.942;73.444;2023-08-07T05:51:15;8.75;8.50;6.00
80861;PMS5003;71798;54.942;73.444;2023-08-07T05:53:41;11.00;10.00;7.00
80861;PMS5003;71798;54.942;73.444;2023-08-07T05:56:07;9.75;9.25;6.25
80861;PMS5003;71798;54.942;73.444;2023-08-07T05:58:33;13.00;11.50;8.00
80861;PMS5003;71798;54.942;73.444;2023-08-07T06:00:59;10.00;10.00;7.00
80861;PMS5003;71798;54.942;73.444;2023-08-07T06:03:26;13.00;11.00;7.00
80861;PMS5003;71798;54.942;73.444;2023-08-07T06:05:52;10.75;10.00;7.00
80861;PMS5003;71798;54.942;73.444;2023-08-07T06:08:18;11.00;10.00;7.00
80861;PMS5003;71798;54.942;73.444;2023-08-07T06:10:44;11.00;10.00;6.00
80861;PMS5003;71798;54.942;73.444;2023-08-07T06:13:10;10.00;9.50;6.00
80861;PMS5003;71798;54.942;73.444;2023-08-07T06:15:36;10.00;9.00;6.00
80861;PMS5003;71798;54.942;73.444;2023-08-07T06:18:03;12.00;10.00;6.25
80861;PMS5003;71798;54.942;73.444;2023-08-07T06:20:29;10.00;9.00;6.00
80861;PMS5003;71798;54.942;73.444;2023-08-07T06:22:55;11.00;10.00;6.00
80861;PMS5003;71798;54.942;73.444;2023-08-07T06:25:21;10.00;9.00;7.00
80861;PMS5003;71798;54.942;73.444;2023-08-07T06:27:47;11.00;10.00;7.00
80861;PMS5003;71798;54.942;73.444;2023-08-07T06:30:13;8.00;8.00;6.00
80861;PMS5003;71798;54.942;73.444;2023-08-07T06:32:39;10.00;9.00;7.00
80861;PMS5003;71798;54.942;73.444;2023-08-07T06:35:05;10.00;9.00;6.00
80861;PMS5003;71798;54.942;73.444;2023-08-07T06:37:31;13.00;11.00;8.00
80861;PMS5003;71798;54.942;73.444;2023-08-07T06:40:00;11.75;11.00;7.00
80861;PMS5003;71798;54.942;73.444;2023-08-07T06:42:27;10.00;8.75;6.00
80861;PMS5003;71798;54.942;73.444;2023-08-07T06:44:53;13.00;11.00;8.00
80861;PMS5003;71798;54.942;73.444;2023-08-07T06:47:20;9.00;9.00;6.00
80861;PMS5003;71798;54.942;73.444;2023-08-07T06:49:46;9.00;9.00;7.00
80861;PMS5003;71798;54.942;73.444;2023-08-07T06:52:12;15.00;12.00;7.00
80861;PMS5003;71798;54.942;73.444;2023-08-07T06:54:38;11.00;10.00;7.00
80861;PMS5003;71798;54.942;73.444;2023-08-07T06:57:05;13.00;11.00;7.00
80861;PMS5003;71798;54.942;73.444;2023-08-07T06:59:31;12.00;11.00;7.00
80861;PMS5003;71798;54.942;73.444;2023-08-07T07:01:57;11.00;10.00;6.25
80861;PMS5003;71798;54.942;73.444;2023-08-07T07:04:24;12.00;10.75;7.00
80861;PMS5003;71798;54.942;73.444;2023-08-07T07:06:50;12.00;10.25;7.00
80861;PMS5003;71798;54.942;73.444;2023-08-07T07:09:22;9.25;9.00;6.00
80861;PMS5003;71798;54.942;73.444;2023-08-07T07:11:48;10.75;9.50;6.00
80861;PMS5003;71798;54.942;73.444;2023-08-07T07:14:14;10.00;9.75;6.25
80861;PMS5003;71798;54.942;73.444;2023-08-07T07:16:40;12.00;10.00;6.00
80861;PMS5003;71798;54.942;73.444;2023-08-07T07:19:07;11.00;10.00;7.00
80861;PMS5003;71798;54.942;73.444;2023-08-07T07:21:35;9.75;9.00;6.00
80861;PMS5003;71798;54.942;73.444;2023-08-07T07:24:01;12.50;11.75;8.00
80861;PMS5003;71798;54.942;73.444;2023-08-07T07:26:28;13.00;11.50;7.75
80861;PMS5003;71798;54.942;73.444;2023-08-07T07:28:54;11.00;10.00;6.00
80861;PMS5003;71798;54.942;73.444;2023-08-07T07:31:20;11.25;10.25;7.50
80861;PMS5003;71798;54.942;73.444;2023-08-07T07:33:46;12.50;11.50;7.00
80861;PMS5003;71798;54.942;73.444;2023-08-07T07:36:16;10.00;8.75;5.25
80861;PMS5003;71798;54.942;73.444;2023-08-07T07:38:42;13.00;12.00;7.00
80861;PMS5003;71798;54.942;73.444;2023-08-07T07:41:10;12.00;10.50;6.50
80861;PMS5003;71798;54.942;73.444;2023-08-07T07:43:37;11.00;11.00;7.00
80861;PMS5003;71798;54.942;73.444;2023-08-07T07:46:03;12.00;11.00;7.50
80861;PMS5003;71798;54.942;73.444;2023-08-07T07:48:29;12.00;11.00;8.00
80861;PMS5003;71798;54.942;73.444;2023-08-07T07:50:59;13.00;12.00;8.00
80861;PMS5003;71798;54.942;73.444;2023-08-07T07:53:26;12.00;10.75;7.00
80861;PMS5003;71798;54.942;73.444;2023-08-07T07:55:52;14.00;11.50;7.00
80861;PMS5003;71798;54.942;73.444;2023-08-07T07:58:19;11.00;10.00;7.00
80861;PMS5003;71798;54.942;73.444;2023-08-07T08:00:46;12.00;11.00;8.00
80861;PMS5003;71798;54.942;73.444;2023-08-07T08:03:12;12.00;10.50;7.00
80861;PMS5003;71798;54.942;73.444;2023-08-07T08:05:38;11.00;10.00;7.00
80861;PMS5003;71798;54.942;73.444;2023-08-07T08:08:08;12.00;11.00;6.00
80861;PMS5003;71798;54.942;73.444;2023-08-07T08:10:34;12.75;11.75;8.00
80861;PMS5003;71798;54.942;73.444;2023-08-07T08:13:01;15.25;13.00;9.00
80861;PMS5003;71798;54.942;73.444;2023-08-07T08:15:29;15.00;12.00;8.00
80861;PMS5003;71798;54.942;73.444;2023-08-07T08:17:55;14.00;13.00;8.00
80861;PMS5003;71798;54.942;73.444;2023-08-07T08:20:21;12.00;11.00;7.00
80861;PMS5003;71798;54.942;73.444;2023-08-07T08:22:47;14.00;12.00;8.00
80861;PMS5003;71798;54.942;73.444;2023-08-07T08:25:13;12.25;10.50;7.25
80861;PMS5003;71798;54.942;73.444;2023-08-07T08:27:39;14.00;12.00;8.50
80861;PMS5003;71798;54.942;73.444;2023-08-07T08:30:06;11.00;9.25;7.00
80861;PMS5003;71798;54.942;73.444;2023-08-07T08:32:32;12.00;10.00;7.00
80861;PMS5003;71798;54.942;73.444;2023-08-07T08:35:00;13.00;12.00;7.00
80861;PMS5003;71798;54.942;73.444;2023-08-07T08:37:26;14.75;13.00;8.50
80861;PMS5003;71798;54.942;73.444;2023-08-07T08:39:52;14.25;12.00;8.00
80861;PMS5003;71798;54.942;73.444;2023-08-07T08:42:18;13.00;11.00;7.00
80861;PMS5003;71798;54.942;73.444;2023-08-07T08:44:46;10.75;10.00;8.00
80861;PMS5003;71798;54.942;73.444;2023-08-07T08:47:14;13.50;11.50;7.00
80861;PMS5003;71798;54.942;73.444;2023-08-07T08:49:43;17.00;14.25;8.00
80861;PMS5003;71798;54.942;73.444;2023-08-07T08:52:11;18.00;15.00;9.00
80861;PMS5003;71798;54.942;73.444;2023-08-07T08:54:38;18.00;15.00;9.75
80861;PMS5003;71798;54.942;73.444;2023-08-07T08:57:06;23.00;18.00;11.00
80861;PMS5003;71798;54.942;73.444;2023-08-07T08:59:32;21.50;18.00;11.00
80861;PMS5003;71798;54.942;73.444;2023-08-07T09:02:00;20.50;16.75;9.25
80861;PMS5003;71798;54.942;73.444;2023-08-07T09:04:26;23.25;19.00;10.50
80861;PMS5003;71798;54.942;73.444;2023-08-07T09:06:52;16.00;13.00;8.00
80861;PMS5003;71798;54.942;73.444;2023-08-07T09:09:19;16.25;14.25;9.00
80861;PMS5003;71798;54.942;73.444;2023-08-07T09:11:46;17.00;14.00;9.00
80861;PMS5003;71798;54.942;73.444;2023-08-07T09:14:15;16.00;13.00;8.00
80861;PMS5003;71798;54.942;73.444;2023-08-07T09:16:41;13.00;11.75;7.00
80861;PMS5003;71798;54.942;73.444;2023-08-07T09:19:07;11.00;10.00;6.00
80861;PMS5003;71798;54.942;73.444;2023-08-07T09:21:34;13.00;12.00;7.50
80861;PMS5003;71798;54.942;73.444;2023-08-07T09:24:00;14.00;12.00;7.00
80861;PMS5003;71798;54.942;73.444;2023-08-07T09:26:26;13.00;11.00;7.00
80861;PMS5003;71798;54.942;73.444;2023-08-07T09:28:53;16.00;13.25;8.00
80861;PMS5003;71798;54.942;73.444;2023-08-07T09:31:20;16.00;13.00;8.00
80861;PMS5003;71798;54.942;73.444;2023-08-07T09:34:50;14.00;12.00;7.75
80861;PMS5003;71798;54.942;73.444;2023-08-07T09:38:22;16.00;15.00;9.00
80861;PMS5003;71798;54.942;73.444;2023-08-07T09:41:52;15.00;13.00;8.00
80861;PMS5003;71798;54.942;73.444;2023-08-07T09:44:19;13.00;12.00;8.00
80861;PMS5003;71798;54.942;73.444;2023-08-07T09:46:45;14.00;11.25;7.00
80861;PMS5003;71798;54.942;73.444;2023-08-07T09:49:11;16.00;14.00;9.00
80861;PMS5003;71798;54.942;73.444;2023-08-07T09:51:41;18.25;16.00;12.00
80861;PMS5003;71798;54.942;73.444;2023-08-07T09:54:08;14.00;12.00;7.00
80861;PMS5003;71798;54.942;73.444;2023-08-07T09:56:34;12.00;10.00;6.25
80861;PMS5003;71798;54.942;73.444;2023-08-07T09:59:00;14.00;12.00;8.00
80861;PMS5003;71798;54.942;73.444;2023-08-07T10:01:26;14.00;11.00;7.00
80861;PMS5003;71798;54.942;73.444;2023-08-07T10:03:53;13.25;12.00;8.00
80861;PMS5003;71798;54.942;73.444;2023-08-07T10:06:20;13.75;12.00;7.25
80861;PMS5003;71798;54.942;73.444;2023-08-07T10:08:46;14.00;11.75;7.00
80861;PMS5003;71798;54.942;73.444;2023-08-07T10:11:12;13.00;11.00;7.00
80861;PMS5003;71798;54.942;73.444;2023-08-07T10:13:40;12.00;10.75;7.00
80861;PMS5003;71798;54.942;73.444;2023-08-07T10:16:07;13.00;11.00;7.00
80861;PMS5003;71798;54.942;73.444;2023-08-07T10:20:02;14.50;13.00;9.00
80861;PMS5003;71798;54.942;73.444;2023-08-07T10:23:37;15.00;13.00;8.00
80861;PMS5003;71798;54.942;73.444;2023-08-07T10:27:11;12.00;11.00;7.00
80861;PMS5003;71798;54.942;73.444;2023-08-07T10:30:42;11.00;10.50;7.00
80861;PMS5003;71798;54.942;73.444;2023-08-07T10:34:12;12.50;11.25;7.00
80861;PMS5003;71798;54.942;73.444;2023-08-07T10:37:44;12.50;11.50;7.00
80861;PMS5003;71798;54.942;73.444;2023-08-07T10:41:15;17.25;14.50;10.00
80861;PMS5003;71798;54.942;73.444;2023-08-07T10:44:48;13.00;12.00;7.00
80861;PMS5003;71798;54.942;73.444;2023-08-07T10:48:20;11.00;11.00;7.00
80861;PMS5003;71798;54.942;73.444;2023-08-07T10:51:50;14.25;12.50;7.00
80861;PMS5003;71798;54.942;73.444;2023-08-07T10:55:21;13.00;12.00;8.00
80861;PMS5003;71798;54.942;73.444;2023-08-07T11:02:30;15.00;13.00;9.00
80861;PMS5003;71798;54.942;73.444;2023-08-07T11:09:37;16.00;14.00;9.00
80861;PMS5003;71798;54.942;73.444;2023-08-07T11:16:44;20.00;17.00;11.00
80861;PMS5003;71798;54.942;73.444;2023-08-07T11:20:14;13.00;11.00;7.00
80861;PMS5003;71798;54.942;73.444;2023-08-07T11:27:21;13.00;11.00;7.00
80861;PMS5003;71798;54.942;73.444;2023-08-07T11:30:52;20.50;18.50;12.00
80861;PMS5003;71798;54.942;73.444;2023-08-07T11:34:22;13.75;12.00;7.00
80861;PMS5003;71798;54.942;73.444;2023-08-07T11:41:31;12.50;11.00;7.00
80861;PMS5003;71798;54.942;73.444;2023-08-07T11:48:37;14.75;13.00;8.00
80861;PMS5003;71798;54.942;73.444;2023-08-07T11:52:07;15.50;13.00;8.00
80861;PMS5003;71798;54.942;73.444;2023-08-07T11:59:16;13.00;11.00;6.75
80861;PMS5003;71798;54.942;73.444;2023-08-07T12:02:45;14.00;12.00;7.00
80861;PMS5003;71798;54.942;73.444;2023-08-07T12:06:16;9.25;9.00;6.75
80861;PMS5003;71798;54.942;73.444;2023-08-07T12:09:48;14.00;11.00;6.00
80861;PMS5003;71798;54.942;73.444;2023-08-07T12:13:27;11.25;11.00;7.00
80861;PMS5003;71798;54.942;73.444;2023-08-07T12:16:51;10.50;10.00;7.00
80861;PMS5003;71798;54.942;73.444;2023-08-07T12:20:22;15.00;13.00;9.00
80861;PMS5003;71798;54.942;73.444;2023-08-07T12:23:54;16.00;15.00;9.00
80861;PMS5003;71798;54.942;73.444;2023-08-07T12:27:23;14.00;12.00;7.00
80861;PMS5003;71798;54.942;73.444;2023-08-07T12:30:53;13.00;11.75;7.00
80861;PMS5003;71798;54.942;73.444;2023-08-07T12:34:24;12.00;9.25;6.00
80861;PMS5003;71798;54.942;73.444;2023-08-07T12:37:55;15.00;12.75;7.50
80861;PMS5003;71798;54.942;73.444;2023-08-07T12:49:17;12.00;11.00;7.00
80861;PMS5003;71798;54.942;73.444;2023-08-07T12:51:44;11.00;10.00;6.00
80861;PMS5003;71798;54.942;73.444;2023-08-07T12:54:11;10.50;9.50;6.50
80861;PMS5003;71798;54.942;73.444;2023-08-07T12:56:40;12.00;11.00;8.00
80861;PMS5003;71798;54.942;73.444;2023-08-07T12:59:07;14.00;13.00;9.00
80861;PMS5003;71798;54.942;73.444;2023-08-07T13:01:33;11.00;10.00;7.00
80861;PMS5003;71798;54.942;73.444;2023-08-07T13:03:59;14.00;12.00;9.00
80861;PMS5003;71798;54.942;73.444;2023-08-07T13:06:25;13.00;11.75;7.00
80861;PMS5003;71798;54.942;73.444;2023-08-07T13:08:51;15.00;14.00;10.00
80861;PMS5003;71798;54.942;73.444;2023-08-07T13:11:17;10.00;9.00;5.50
80861;PMS5003;71798;54.942;73.444;2023-08-07T13:13:43;11.75;10.00;6.00
80861;PMS5003;71798;54.942;73.444;2023-08-07T13:16:09;8.75;8.50;5.75
80861;PMS5003;71798;54.942;73.444;2023-08-07T13:18:36;10.00;9.25;6.00
80861;PMS5003;71798;54.942;73.444;2023-08-07T13:21:02;12.00;10.00;6.00
80861;PMS5003;71798;54.942;73.444;2023-08-07T13:23:28;11.25;10.00;6.00
80861;PMS5003;71798;54.942;73.444;2023-08-07T13:25:54;14.50;12.00;8.00
80861;PMS5003;71798;54.942;73.444;2023-08-07T13:28:21;12.00;11.00;6.50
80861;PMS5003;71798;54.942;73.444;2023-08-07T13:30:47;12.00;10.50;6.00
80861;PMS5003;71798;54.942;73.444;2023-08-07T13:33:13;12.00;10.00;7.00
80861;PMS5003;71798;54.942;73.444;2023-08-07T13:35:39;11.00;10.00;7.00
80861;PMS5003;71798;54.942;73.444;2023-08-07T13:38:05;12.00;11.00;7.00
80861;PMS5003;71798;54.942;73.444;2023-08-07T13:40:33;11.00;10.00;6.00
80861;PMS5003;71798;54.942;73.444;2023-08-07T13:43:00;11.50;10.00;6.00
80861;PMS5003;71798;54.942;73.444;2023-08-07T13:45:33;12.00;11.00;6.75
80861;PMS5003;71798;54.942;73.444;2023-08-07T13:47:59;15.00;13.50;9.00
80861;PMS5003;71798;54.942;73.444;2023-08-07T13:51:29;14.00;12.00;8.00
80861;PMS5003;71798;54.942;73.444;2023-08-07T13:55:00;12.00;11.00;7.25
80861;PMS5003;71798;54.942;73.444;2023-08-07T13:58:31;13.00;11.50;7.00
80861;PMS5003;71798;54.942;73.444;2023-08-07T14:02:03;15.00;14.00;9.00
80861;PMS5003;71798;54.942;73.444;2023-08-07T14:05:33;18.00;16.00;10.00
80861;PMS5003;71798;54.942;73.444;2023-08-07T14:09:04;16.25;14.00;9.00
80861;PMS5003;71798;54.942;73.444;2023-08-07T14:12:35;14.00;12.50;8.00
80861;PMS5003;71798;54.942;73.444;2023-08-07T14:16:06;14.00;12.00;8.00
80861;PMS5003;71798;54.942;73.444;2023-08-07T14:19:37;13.00;12.00;8.00
80861;PMS5003;71798;54.942;73.444;2023-08-07T14:23:08;15.00;13.00;9.00
80861;PMS5003;71798;54.942;73.444;2023-08-07T14:26:39;14.00;12.00;8.00
80861;PMS5003;71798;54.942;73.444;2023-08-07T14:41:00;17.00;14.75;9.25
80861;PMS5003;71798;54.942;73.444;2023-08-07T14:44:30;21.50;18.00;11.50
80861;PMS5003;71798;54.942;73.444;2023-08-07T14:48:03;25.50;22.75;16.00
80861;PMS5003;71798;54.942;73.444;2023-08-07T14:51:33;14.75;13.25;10.00
80861;PMS5003;71798;54.942;73.444;2023-08-07T14:55:05;16.00;14.00;9.00
80861;PMS5003;71798;54.942;73.444;2023-08-07T14:58:35;23.00;20.00;12.75
80861;PMS5003;71798;54.942;73.444;2023-08-07T15:02:06;42.50;35.25;23.25
80861;PMS5003;71798;54.942;73.444;2023-08-07T15:04:41;32.00;27.00;18.00
80861;PMS5003;71798;54.942;73.444;2023-08-07T15:07:09;23.00;21.00;14.00
80861;PMS5003;71798;54.942;73.444;2023-08-07T15:09:40;23.75;21.00;13.75
80861;PMS5003;71798;54.942;73.444;2023-08-07T15:12:08;24.00;20.50;13.75
80861;PMS5003;71798;54.942;73.444;2023-08-07T15:14:40;26.00;22.00;14.00
80861;PMS5003;71798;54.942;73.444;2023-08-07T15:17:09;23.00;20.00;13.00
80861;PMS5003;71798;54.942;73.444;2023-08-07T15:19:44;20.00;18.75;12.50
80861;PMS5003;71798;54.942;73.444;2023-08-07T15:22:15;21.75;19.00;12.00
80861;PMS5003;71798;54.942;73.444;2023-08-07T15:24:43;21.75;19.50;13.00
80861;PMS5003;71798;54.942;73.444;2023-08-07T15:27:11;22.00;20.00;12.50
80861;PMS5003;71798;54.942;73.444;2023-08-07T15:29:39;19.00;17.00;12.00
80861;PMS5003;71798;54.942;73.444;2023-08-07T15:32:10;22.00;19.00;11.50
80861;PMS5003;71798;54.942;73.444;2023-08-07T15:34:46;23.00;20.25;13.00
80861;PMS5003;71798;54.942;73.444;2023-08-07T15:37:15;23.00;20.75;13.00
80861;PMS5003;71798;54.942;73.444;2023-08-07T15:39:46;24.50;22.00;14.50
80861;PMS5003;71798;54.942;73.444;2023-08-07T15:42:14;34.00;28.00;17.50